Time;durP1;ratioP1;P1;durP2;ratioP2;P2;SDS_P1;SDS_P2;PMS_P1;PMS_P2;Temp;Humidity;BMP_temperature;BMP_pressure;BME280_temperature;BME280_humidity;BME280_pressure;Samples;Min_cycle;Max_cycle;Signal;HPM_P1;HPM_P2
2021/10/02 00:35:00;;;;;;;12.52;7.15;;;;;;;;;;4923815;28;20047;-58
2021/10/02 00:45:49;;;;;;;12.30;6.57;;;;;;;;;;4929490;28;20055;-58
2021/10/02 00:48:15;;;;;;;11.60;7.22;;;;;;;;;;4934738;28;20029;-58
2021/10/02 00:50:40;;;;;;;13.48;7.45;;;;;;;;;;4931585;28;20124;-58
2021/10/02 00:53:06;;;;;;;13.25;8.40;;;;;;;;;;4925820;28;20036;-59
2021/10/02 00:55:32;;;;;;;12.57;7.78;;;;;;;;;;4945453;28;20470;-58
2021/10/02 00:57:57;;;;;;;13.07;7.82;;;;;;;;;;4928350;28;20024;-58
2021/10/02 01:00:25;;;;;;;16.48;8.25;;;;;;;;;;4925875;28;20025;-58
2021/10/02 01:02:53;;;;;;;11.85;7.32;;;;;;;;;;4927009;28;20031;-57
2021/10/02 01:05:38;;;;;;;12.07;6.80;;;;;;;;;;4933767;28;20031;-58
2021/10/02 01:08:22;;;;;;;11.27;6.50;;;;;;;;;;4926017;28;20034;-58
2021/10/02 01:10:52;;;;;;;9.93;6.65;;;;;;;;;;4926199;28;20028;-58
2021/10/02 01:13:44;;;;;;;10.65;6.68;;;;;;;;;;4918670;28;20062;-58
2021/10/02 01:16:14;;;;;;;11.65;6.88;;;;;;;;;;4937020;28;20030;-58
2021/10/02 01:18:48;;;;;;;12.00;6.10;;;;;;;;;;4926512;28;20027;-58
2021/10/02 01:21:47;;;;;;;10.85;6.47;;;;;;;;;;4926402;28;20044;-58
2021/10/02 01:24:12;;;;;;;11.90;6.37;;;;;;;;;;4916896;28;20114;-58
2021/10/02 01:26:43;;;;;;;9.38;5.82;;;;;;;;;;4925116;28;20294;-58
2021/10/02 01:29:12;;;;;;;14.45;7.13;;;;;;;;;;4929330;28;20210;-58
2021/10/02 01:31:46;;;;;;;11.90;7.00;;;;;;;;;;4924428;28;20036;-58
2021/10/02 01:34:21;;;;;;;13.90;7.18;;;;;;;;;;4924066;28;20272;-58
2021/10/02 01:37:25;;;;;;;;;;;;;;;;;;;;;
2021/10/02 01:48:13;;;;;;;13.43;6.43;;;;;;;;;;4938439;28;20044;-58
2021/10/02 01:50:39;;;;;;;;;;;;;;;;;;4935083;28;20028;-58
2021/10/02 01:53:06;;;;;;;10.65;6.45;;;;;;;;;;4937831;28;19922;-59
2021/10/02 01:55:34;;;;;;;15.30;7.10;;;;;;;;;;4926092;28;20177;-58
2021/10/02 01:58:03;;;;;;;10.40;6.57;;;;;;;;;;4929079;28;20069;-59
2021/10/02 02:00:29;;;;;;;10.73;6.40;;;;;;;;;;4916198;28;20162;-58
2021/10/02 02:03:00;;;;;;;11.77;6.22;;;;;;;;;;4925087;28;20061;-59
2021/10/02 02:05:29;;;;;;;10.85;6.70;;;;;;;;;;4933329;28;20106;-59
2021/10/02 02:08:04;;;;;;;13.33;6.90;;;;;;;;;;4925625;28;20127;-58
2021/10/02 02:10:30;;;;;;;11.45;6.65;;;;;;;;;;4941450;28;20268;-58
2021/10/02 02:13:00;;;;;;;13.10;6.45;;;;;;;;;;4929746;28;20169;-58
2021/10/02 02:15:31;;;;;;;14.10;6.65;;;;;;;;;;4924116;28;20020;-58
2021/10/02 02:18:03;;;;;;;12.60;6.68;;;;;;;;;;4926922;28;20498;-58
2021/10/02 02:20:31;;;;;;;13.25;6.60;;;;;;;;;;4939693;28;20035;-59
2021/10/02 02:22:58;;;;;;;11.68;6.35;;;;;;;;;;4935118;28;20031;-58
2021/10/02 02:25:24;;;;;;;14.02;7.40;;;;;;;;;;4923744;28;20248;-59
2021/10/02 02:27:50;;;;;;;13.52;7.20;;;;;;;;;;4934558;28;20036;-58
2021/10/02 02:30:15;;;;;;;13.77;7.15;;;;;;;;;;4932592;28;20379;-59
2021/10/02 02:32:41;;;;;;;11.10;7.18;;;;;;;;;;4939958;28;20146;-58
2021/10/02 02:35:08;;;;;;;11.57;6.30;;;;;;;;;;4931162;28;20492;-58
2021/10/02 02:37:34;;;;;;;14.65;7.20;;;;;;;;;;4935332;28;20048;-58
2021/10/02 02:40:00;;;;;;;9.93;6.45;;;;;;;;;;4940131;28;20406;-58
2021/10/02 02:42:26;;;;;;;14.57;7.72;;;;;;;;;;4933919;28;20456;-58
2021/10/02 02:44:52;;;;;;;11.77;6.90;;;;;;;;;;4930490;28;20170;-58
2021/10/02 02:47:22;;;;;;;12.32;7.07;;;;;;;;;;4929054;28;20023;-58
2021/10/02 02:49:57;;;;;;;12.52;7.32;;;;;;;;;;4930076;28;20086;-58
2021/10/02 02:52:30;;;;;;;11.68;7.53;;;;;;;;;;4933557;28;20027;-59
2021/10/02 02:55:03;;;;;;;11.82;6.75;;;;;;;;;;4930105;28;20017;-58
2021/10/02 02:57:34;;;;;;;13.07;7.90;;;;;;;;;;4926051;28;20024;-58
2021/10/02 03:00:21;;;;;;;11.80;7.45;;;;;;;;;;4930786;28;20031;-59
2021/10/02 03:02:57;;;;;;;12.40;6.85;;;;;;;;;;4935549;28;20052;-58
2021/10/02 03:05:24;;;;;;;15.07;7.15;;;;;;;;;;4931766;28;20061;-59
2021/10/02 03:08:02;;;;;;;14.63;7.82;;;;;;;;;;4925788;28;20410;-58
2021/10/02 03:10:29;;;;;;;15.98;7.80;;;;;;;;;;4935937;28;20447;-59
2021/10/02 03:12:59;;;;;;;13.18;6.57;;;;;;;;;;4930477;28;20115;-58
2021/10/02 03:15:26;;;;;;;14.32;7.30;;;;;;;;;;4924845;28;20031;-58
2021/10/02 03:17:52;;;;;;;14.55;7.18;;;;;;;;;;4940781;28;20032;-58
2021/10/02 03:20:19;;;;;;;12.48;6.93;;;;;;;;;;4925909;28;20038;-58
2021/10/02 03:22:47;;;;;;;12.25;6.70;;;;;;;;;;4928303;28;20134;-58
2021/10/02 03:25:12;;;;;;;11.40;6.32;;;;;;;;;;4950537;28;20042;-58
2021/10/02 03:27:39;;;;;;;12.90;6.72;;;;;;;;;;4931053;28;20036;-58
2021/10/02 03:30:09;;;;;;;12.98;6.50;;;;;;;;;;4942158;28;20029;-58
2021/10/02 03:32:34;;;;;;;14.07;7.03;;;;;;;;;;4929586;28;20486;-58
2021/10/02 03:35:00;;;;;;;14.05;6.60;;;;;;;;;;4920692;28;20040;-58
2021/10/02 03:37:28;;;;;;;12.60;6.82;;;;;;;;;;4935075;28;20060;-58
2021/10/02 03:39:54;;;;;;;11.80;7.03;;;;;;;;;;4931914;28;20388;-58
2021/10/02 03:42:21;;;;;;;15.25;6.63;;;;;;;;;;4933650;28;20040;-58
2021/10/02 03:44:48;;;;;;;14.32;6.90;;;;;;;;;;4926938;28;20554;-58
2021/10/02 03:47:17;;;;;;;13.13;6.65;;;;;;;;;;4929455;28;20060;-58
2021/10/02 03:49:44;;;;;;;15.27;7.10;;;;;;;;;;4938905;28;20090;-58
2021/10/02 03:52:11;;;;;;;11.90;6.60;;;;;;;;;;4929619;28;20120;-58
2021/10/02 03:54:37;;;;;;;12.45;7.13;;;;;;;;;;4942337;28;20050;-58
2021/10/02 03:57:04;;;;;;;13.10;6.57;;;;;;;;;;4926806;28;20027;-58
2021/10/02 03:59:29;;;;;;;12.48;6.60;;;;;;;;;;4932932;28;20560;-58
2021/10/02 04:01:55;;;;;;;13.32;6.35;;;;;;;;;;4937498;28;20040;-57
2021/10/02 04:04:22;;;;;;;12.43;6.85;;;;;;;;;;4927338;28;20031;-57
2021/10/02 04:06:51;;;;;;;12.95;6.55;;;;;;;;;;4933160;28;20170;-58
2021/10/02 04:09:17;;;;;;;12.52;7.20;;;;;;;;;;4934630;28;20067;-58
2021/10/02 04:11:42;;;;;;;11.18;6.40;;;;;;;;;;4934998;28;20040;-58
2021/10/02 04:14:08;;;;;;;14.73;6.90;;;;;;;;;;4936291;28;20422;-58
2021/10/02 04:16:33;;;;;;;14.10;6.82;;;;;;;;;;4927069;28;20039;-58
2021/10/02 04:19:00;;;;;;;12.05;6.05;;;;;;;;;;4946082;28;20534;-58
2021/10/02 04:21:25;;;;;;;13.95;6.60;;;;;;;;;;4924927;28;20050;-58
2021/10/02 04:23:51;;;;;;;16.75;7.28;;;;;;;;;;4929497;28;20027;-58
2021/10/02 04:26:18;;;;;;;15.13;7.15;;;;;;;;;;4935726;28;20036;-58
2021/10/02 04:28:44;;;;;;;15.18;7.38;;;;;;;;;;4949487;28;20089;-58
2021/10/02 04:31:11;;;;;;;13.68;7.28;;;;;;;;;;4943565;28;20024;-58
2021/10/02 04:33:37;;;;;;;12.35;6.65;;;;;;;;;;4931238;28;20063;-58
2021/10/02 04:36:02;;;;;;;12.88;7.00;;;;;;;;;;4936828;28;20600;-57
2021/10/02 04:38:28;;;;;;;11.32;6.72;;;;;;;;;;4927399;28;20032;-58
2021/10/02 04:40:54;;;;;;;15.38;7.45;;;;;;;;;;4937045;28;20024;-57
2021/10/02 04:43:21;;;;;;;12.88;6.25;;;;;;;;;;4928541;28;20067;-58
2021/10/02 04:45:46;;;;;;;13.93;6.70;;;;;;;;;;4922825;28;20043;-57
2021/10/02 04:48:12;;;;;;;12.43;6.50;;;;;;;;;;4936295;28;20035;-58
2021/10/02 04:50:38;;;;;;;14.13;7.10;;;;;;;;;;4934078;28;20029;-58
2021/10/02 04:53:03;;;;;;;12.90;7.00;;;;;;;;;;4936480;28;20036;-58
2021/10/02 04:55:29;;;;;;;11.02;6.45;;;;;;;;;;4964192;28;20051;-57
2021/10/02 04:57:54;;;;;;;13.32;6.82;;;;;;;;;;4937423;28;20332;-57
2021/10/02 05:00:19;;;;;;;11.52;7.32;;;;;;;;;;4921110;28;20517;-58
2021/10/02 05:02:45;;;;;;;13.55;6.80;;;;;;;;;;4935410;28;20501;-57
2021/10/02 05:05:10;;;;;;;12.05;7.05;;;;;;;;;;4940388;28;20036;-59
2021/10/02 05:07:36;;;;;;;15.63;7.57;;;;;;;;;;4928014;28;20031;-58
2021/10/02 05:10:01;;;;;;;14.15;8.18;;;;;;;;;;4937774;28;20561;-58
2021/10/02 05:12:27;;;;;;;21.55;11.63;;;;;;;;;;4935103;28;20121;-57
2021/10/02 05:14:52;;;;;;;17.90;11.43;;;;;;;;;;4931354;28;20027;-58
2021/10/02 05:17:18;;;;;;;23.23;11.40;;;;;;;;;;4928612;28;20067;-58
2021/10/02 05:19:43;;;;;;;17.77;9.25;;;;;;;;;;4948023;28;20046;-57
2021/10/02 05:22:09;;;;;;;14.15;7.55;;;;;;;;;;4920379;28;20043;-58
2021/10/02 05:24:38;;;;;;;20.10;9.57;;;;;;;;;;4933443;28;20043;-58
2021/10/02 05:27:08;;;;;;;23.90;10.90;;;;;;;;;;4928941;28;20040;-57
2021/10/02 05:29:38;;;;;;;21.25;10.18;;;;;;;;;;4928023;28;20028;-58
2021/10/02 05:32:04;;;;;;;17.67;9.52;;;;;;;;;;4919558;28;20036;-58
2021/10/02 05:34:30;;;;;;;11.98;6.93;;;;;;;;;;4931316;28;20033;-58
2021/10/02 05:36:56;;;;;;;15.50;7.95;;;;;;;;;;4928442;28;20394;-59
2021/10/02 05:39:22;;;;;;;13.77;7.97;;;;;;;;;;4925629;28;20112;-58
2021/10/02 05:41:47;;;;;;;14.27;7.68;;;;;;;;;;4939552;28;20028;-58
2021/10/02 05:44:12;;;;;;;14.88;7.65;;;;;;;;;;4923019;28;20020;-58
2021/10/02 05:46:38;;;;;;;17.60;8.45;;;;;;;;;;4931186;28;20055;-57
2021/10/02 05:49:04;;;;;;;16.05;8.88;;;;;;;;;;4918279;28;20028;-58
2021/10/02 05:51:29;;;;;;;26.52;11.90;;;;;;;;;;4945866;28;20033;-57
2021/10/02 05:53:55;;;;;;;14.88;8.57;;;;;;;;;;4939541;28;20090;-58
2021/10/02 05:56:21;;;;;;;14.63;8.18;;;;;;;;;;4929629;28;20040;-58
2021/10/02 05:58:46;;;;;;;15.05;8.18;;;;;;;;;;4927516;28;20487;-58
2021/10/02 06:01:12;;;;;;;14.10;7.88;;;;;;;;;;4927995;28;20318;-58
2021/10/02 06:03:37;;;;;;;15.43;7.70;;;;;;;;;;4923890;28;20734;-58
2021/10/02 06:06:03;;;;;;;14.88;8.07;;;;;;;;;;4925306;28;20031;-58
2021/10/02 06:08:28;;;;;;;16.20;8.55;;;;;;;;;;4939933;28;20035;-58
2021/10/02 06:10:54;;;;;;;14.82;8.10;;;;;;;;;;4953440;28;20028;-57
2021/10/02 06:13:20;;;;;;;15.27;7.65;;;;;;;;;;4934702;28;20031;-58
2021/10/02 06:15:46;;;;;;;14.60;6.75;;;;;;;;;;4936068;28;20462;-58
2021/10/02 06:18:11;;;;;;;11.57;6.57;;;;;;;;;;4921796;28;20032;-58
2021/10/02 06:20:37;;;;;;;12.48;6.20;;;;;;;;;;4959970;28;20468;-58
2021/10/02 06:23:04;;;;;;;12.65;6.00;;;;;;;;;;4925188;28;20038;-57
2021/10/02 06:25:33;;;;;;;12.48;5.50;;;;;;;;;;4931370;28;20111;-57
2021/10/02 06:27:59;;;;;;;8.73;5.20;;;;;;;;;;4929702;28;20070;-58
2021/10/02 06:30:24;;;;;;;10.85;5.65;;;;;;;;;;4928134;28;20067;-58
2021/10/02 06:32:50;;;;;;;9.35;5.07;;;;;;;;;;4936106;28;20039;-57
2021/10/02 06:35:15;;;;;;;9.82;4.85;;;;;;;;;;4947517;28;20097;-59
2021/10/02 06:37:44;;;;;;;13.25;5.50;;;;;;;;;;4933814;28;20024;-57
2021/10/02 06:40:10;;;;;;;8.88;4.70;;;;;;;;;;4934285;28;20412;-57
2021/10/02 06:42:36;;;;;;;9.30;4.70;;;;;;;;;;4923142;28;20466;-58
2021/10/02 06:45:03;;;;;;;10.45;4.78;;;;;;;;;;4920823;28;20040;-58
2021/10/02 06:47:28;;;;;;;8.50;4.80;;;;;;;;;;4930051;28;20032;-58
2021/10/02 06:49:57;;;;;;;11.60;5.07;;;;;;;;;;4950225;28;20047;-58
2021/10/02 06:52:29;;;;;;;8.80;4.80;;;;;;;;;;4924324;28;20035;-58
2021/10/02 06:54:56;;;;;;;8.40;4.80;;;;;;;;;;4926215;28;20027;-59
2021/10/02 06:57:22;;;;;;;10.32;6.03;;;;;;;;;;4927426;28;20053;-58
2021/10/02 06:59:47;;;;;;;9.52;5.47;;;;;;;;;;4920863;28;20499;-59
2021/10/02 07:02:13;;;;;;;14.27;6.72;;;;;;;;;;4929605;28;20027;-58
2021/10/02 07:04:39;;;;;;;8.98;4.95;;;;;;;;;;4929200;28;20436;-59
2021/10/02 07:07:04;;;;;;;11.93;5.60;;;;;;;;;;4945123;28;20032;-59
2021/10/02 07:09:30;;;;;;;12.13;5.40;;;;;;;;;;4953300;28;20091;-58
2021/10/02 07:11:56;;;;;;;18.10;7.95;;;;;;;;;;4936484;28;20043;-58
2021/10/02 07:14:22;;;;;;;14.10;6.78;;;;;;;;;;4938962;28;20035;-57
2021/10/02 07:16:48;;;;;;;13.02;6.65;;;;;;;;;;4929904;28;21920;-59
2021/10/02 07:19:15;;;;;;;14.98;6.28;;;;;;;;;;4936022;28;20089;-59
2021/10/02 07:21:40;;;;;;;10.02;5.60;;;;;;;;;;4930704;28;20030;-58
2021/10/02 07:24:06;;;;;;;9.77;5.20;;;;;;;;;;4935754;28;20033;-58
2021/10/02 07:26:32;;;;;;;13.40;4.72;;;;;;;;;;4925577;28;20114;-58
2021/10/02 07:28:57;;;;;;;13.55;4.88;;;;;;;;;;4924871;28;20036;-59
2021/10/02 07:31:23;;;;;;;9.82;4.30;;;;;;;;;;4949462;28;20028;-58
2021/10/02 07:33:49;;;;;;;6.88;3.80;;;;;;;;;;4921582;28;20024;-58
2021/10/02 07:36:16;;;;;;;10.15;4.57;;;;;;;;;;4932745;28;20024;-58
2021/10/02 07:38:42;;;;;;;8.73;5.05;;;;;;;;;;4928791;28;20038;-58
2021/10/02 07:41:11;;;;;;;10.43;4.25;;;;;;;;;;4929789;28;20039;-57
2021/10/02 07:43:39;;;;;;;7.37;4.17;;;;;;;;;;4927896;28;20066;-56
2021/10/02 07:46:06;;;;;;;10.20;5.22;;;;;;;;;;4935462;28;20318;-57
2021/10/02 07:48:32;;;;;;;10.15;4.97;;;;;;;;;;4934455;28;20086;-60
2021/10/02 07:51:00;;;;;;;12.35;6.13;;;;;;;;;;4930202;28;20043;-57
2021/10/02 07:53:30;;;;;;;10.10;4.80;;;;;;;;;;5006158;28;20139;-58
2021/10/02 07:55:57;;;;;;;6.72;4.47;;;;;;;;;;4925614;28;20020;-58
2021/10/02 07:58:22;;;;;;;10.48;5.28;;;;;;;;;;4926472;28;20032;-59
2021/10/02 08:00:51;;;;;;;9.65;4.50;;;;;;;;;;4919210;28;20406;-57
2021/10/02 08:03:19;;;;;;;14.32;6.43;;;;;;;;;;4931648;28;20027;-58
2021/10/02 08:05:45;;;;;;;8.00;4.55;;;;;;;;;;4933063;28;20040;-59
2021/10/02 08:08:12;;;;;;;9.05;4.57;;;;;;;;;;4932710;28;20082;-58
2021/10/02 08:10:38;;;;;;;7.43;4.57;;;;;;;;;;4939286;28;20063;-59
2021/10/02 08:13:03;;;;;;;6.97;4.60;;;;;;;;;;4937226;28;20067;-58
2021/10/02 08:15:29;;;;;;;7.75;4.03;;;;;;;;;;4928279;28;20104;-59
2021/10/02 08:17:56;;;;;;;6.53;4.15;;;;;;;;;;4927218;28;20047;-59
2021/10/02 08:20:22;;;;;;;13.88;5.75;;;;;;;;;;4932319;28;20031;-58
2021/10/02 08:22:50;;;;;;;7.97;4.43;;;;;;;;;;4923499;28;20027;-58
2021/10/02 08:25:18;;;;;;;13.45;5.78;;;;;;;;;;4929073;28;20036;-58
2021/10/02 08:27:45;;;;;;;8.20;5.00;;;;;;;;;;4921557;28;20057;-57
2021/10/02 08:30:12;;;;;;;7.28;4.60;;;;;;;;;;4930843;28;20046;-58
2021/10/02 08:32:38;;;;;;;12.52;5.05;;;;;;;;;;4930429;28;20051;-57
2021/10/02 08:35:05;;;;;;;11.32;5.32;;;;;;;;;;4930824;28;20023;-57
2021/10/02 08:37:31;;;;;;;9.30;4.30;;;;;;;;;;4937989;28;20066;-59
2021/10/02 08:39:56;;;;;;;13.25;5.30;;;;;;;;;;4927136;28;20055;-58
2021/10/02 08:42:24;;;;;;;7.95;4.80;;;;;;;;;;4927150;28;20038;-58
2021/10/02 08:44:51;;;;;;;9.77;4.72;;;;;;;;;;4951052;28;20051;-58
2021/10/02 08:47:20;;;;;;;8.15;4.50;;;;;;;;;;4935092;28;20025;-59
2021/10/02 08:49:48;;;;;;;12.85;5.65;;;;;;;;;;4929870;28;20478;-60
2021/10/02 08:52:15;;;;;;;12.70;5.90;;;;;;;;;;4923516;28;20043;-58
2021/10/02 08:54:44;;;;;;;9.45;5.25;;;;;;;;;;4921527;28;20032;-58
2021/10/02 08:57:13;;;;;;;11.90;7.33;;;;;;;;;;4934005;28;20028;-59
2021/10/02 08:59:39;;;;;;;9.55;5.50;;;;;;;;;;4924730;28;20042;-59
2021/10/02 09:02:09;;;;;;;10.25;5.75;;;;;;;;;;4925500;28;20367;-59
2021/10/02 09:04:36;;;;;;;9.90;5.28;;;;;;;;;;4931677;28;20050;-61
2021/10/02 09:07:04;;;;;;;12.35;6.53;;;;;;;;;;4924946;28;20071;-58
2021/10/02 09:09:29;;;;;;;10.93;6.85;;;;;;;;;;4928222;28;20183;-59
2021/10/02 09:11:55;;;;;;;13.18;6.35;;;;;;;;;;4923272;28;20114;-59
2021/10/02 09:14:21;;;;;;;14.93;6.45;;;;;;;;;;4930518;28;20043;-58
2021/10/02 09:16:46;;;;;;;10.50;6.35;;;;;;;;;;4935101;28;20028;-58
2021/10/02 09:19:11;;;;;;;13.80;6.72;;;;;;;;;;4935051;28;20556;-58
2021/10/02 09:22:04;;;;;;;11.48;6.43;;;;;;;;;;4928390;28;20027;-58
2021/10/02 09:24:36;;;;;;;13.77;7.00;;;;;;;;;;4933567;28;20078;-58
2021/10/02 09:27:02;;;;;;;13.43;7.43;;;;;;;;;;4925206;28;20028;-58
2021/10/02 09:29:46;;;;;;;14.35;7.82;;;;;;;;;;4927178;28;20115;-58
2021/10/02 09:32:14;;;;;;;15.55;8.68;;;;;;;;;;4949969;28;20051;-60
2021/10/02 09:34:51;;;;;;;17.95;9.05;;;;;;;;;;4939022;28;20028;-59
2021/10/02 09:37:23;;;;;;;14.20;7.32;;;;;;;;;;4935715;28;20028;-59
2021/10/02 09:39:50;;;;;;;11.55;7.40;;;;;;;;;;4930973;28;20032;-59
2021/10/02 09:42:43;;;;;;;15.48;7.53;;;;;;;;;;4930140;28;20130;-60
2021/10/02 09:45:11;;;;;;;9.15;6.40;;;;;;;;;;4935562;28;20394;-61
2021/10/02 09:47:38;;;;;;;12.35;6.25;;;;;;;;;;4931502;28;20118;-59
2021/10/02 09:50:13;;;;;;;15.75;8.02;;;;;;;;;;4932150;28;20028;-59
2021/10/02 09:52:41;;;;;;;13.18;8.18;;;;;;;;;;4934597;28;20453;-58
2021/10/02 09:55:35;;;;;;;16.98;8.13;;;;;;;;;;4930334;28;20046;-60
2021/10/02 09:58:10;;;;;;;10.05;6.10;;;;;;;;;;4927475;28;20064;-59
2021/10/02 10:00:44;;;;;;;11.73;6.32;;;;;;;;;;4930543;28;20095;-59
2021/10/02 10:03:12;;;;;;;11.05;6.28;;;;;;;;;;4932228;28;20032;-59
2021/10/02 10:05:59;;;;;;;14.07;6.68;;;;;;;;;;4930257;28;20506;-59
2021/10/02 10:08:28;;;;;;;14.07;6.63;;;;;;;;;;4928824;28;20131;-59
2021/10/02 10:11:11;;;;;;;10.48;5.95;;;;;;;;;;4998628;28;20031;-59
2021/10/02 10:13:38;;;;;;;10.70;6.20;;;;;;;;;;4920781;28;20486;-60
2021/10/02 10:16:08;;;;;;;9.15;5.50;;;;;;;;;;4923931;28;22094;-59
2021/10/02 10:18:38;;;;;;;10.23;5.88;;;;;;;;;;4937210;28;20086;-58
2021/10/02 10:21:06;;;;;;;10.00;6.00;;;;;;;;;;4929043;28;20046;-58
2021/10/02 10:23:43;;;;;;;9.60;5.72;;;;;;;;;;4927585;28;20035;-59
2021/10/02 10:26:17;;;;;;;9.85;6.25;;;;;;;;;;4923676;28;20089;-59
2021/10/02 10:28:45;;;;;;;8.50;5.70;;;;;;;;;;4928407;28;20113;-58
2021/10/02 10:31:24;;;;;;;8.65;5.85;;;;;;;;;;4933353;28;20509;-58
2021/10/02 10:33:52;;;;;;;10.27;5.93;;;;;;;;;;4930544;28;20261;-58
2021/10/02 10:36:20;;;;;;;9.85;6.25;;;;;;;;;;4941195;28;20115;-58
2021/10/02 10:38:48;;;;;;;9.18;5.50;;;;;;;;;;4924861;28;20039;-60
2021/10/02 10:41:14;;;;;;;10.63;6.03;;;;;;;;;;4921932;28;20119;-59
2021/10/02 10:43:40;;;;;;;10.38;5.65;;;;;;;;;;4922488;28;20031;-59
2021/10/02 10:46:09;;;;;;;9.15;5.35;;;;;;;;;;4948016;28;20088;-58
2021/10/02 10:48:35;;;;;;;9.30;5.20;;;;;;;;;;4926679;28;20050;-58
2021/10/02 10:51:07;;;;;;;8.30;5.57;;;;;;;;;;4928894;28;20094;-59
2021/10/02 10:53:39;;;;;;;9.18;5.80;;;;;;;;;;4923492;28;20048;-60
2021/10/02 10:56:06;;;;;;;8.00;5.60;;;;;;;;;;4927041;28;20040;-59
2021/10/02 10:58:33;;;;;;;10.55;5.40;;;;;;;;;;4926829;28;20032;-60
2021/10/02 11:01:01;;;;;;;8.80;5.13;;;;;;;;;;4940395;28;20547;-59
2021/10/02 11:03:47;;;;;;;7.57;4.68;;;;;;;;;;4923174;28;20053;-59
2021/10/02 11:06:13;;;;;;;8.02;5.10;;;;;;;;;;4935605;28;20028;-60
2021/10/02 11:08:59;;;;;;;8.48;5.25;;;;;;;;;;4924258;28;20118;-59
2021/10/02 11:11:51;;;;;;;9.48;5.35;;;;;;;;;;4930669;28;20119;-59
2021/10/02 11:14:19;;;;;;;8.90;5.43;;;;;;;;;;4927333;28;20166;-59
2021/10/02 11:16:58;;;;;;;7.65;4.97;;;;;;;;;;4927633;28;20020;-59
2021/10/02 11:19:28;;;;;;;8.02;4.85;;;;;;;;;;4929378;28;20035;-59
2021/10/02 11:22:00;;;;;;;7.40;4.82;;;;;;;;;;4939669;28;20028;-58
2021/10/02 11:24:40;;;;;;;7.47;4.95;;;;;;;;;;4935576;28;20035;-60
2021/10/02 11:27:07;;;;;;;8.70;5.15;;;;;;;;;;4932954;28;20078;-60
2021/10/02 11:29:35;;;;;;;8.82;5.45;;;;;;;;;;4938091;28;20301;-58
2021/10/02 11:32:22;;;;;;;13.57;5.43;;;;;;;;;;4937034;28;20103;-59
2021/10/02 11:35:20;;;;;;;8.00;5.13;;;;;;;;;;4927933;28;20020;-58
2021/10/02 11:38:07;;;;;;;8.43;4.90;;;;;;;;;;4929234;28;20114;-60
2021/10/02 11:40:36;;;;;;;9.15;4.90;;;;;;;;;;4937060;28;20036;-58
2021/10/02 11:45:39;;;;;;;6.55;4.97;;;;;;;;;;4928582;28;20131;-58
2021/10/02 11:48:11;;;;;;;7.72;5.10;;;;;;;;;;4932362;28;20505;-59
2021/10/02 11:50:36;;;;;;;10.57;5.10;;;;;;;;;;4925702;28;20046;-59
2021/10/02 11:53:02;;;;;;;8.68;4.93;;;;;;;;;;4927465;28;20044;-59
2021/10/02 11:55:33;;;;;;;8.30;4.80;;;;;;;;;;4952213;28;20046;-60
2021/10/02 11:58:08;;;;;;;15.75;5.35;;;;;;;;;;4945401;28;20035;-59
2021/10/02 12:00:48;;;;;;;15.30;7.40;;;;;;;;;;4925289;28;20066;-59
2021/10/02 12:03:26;;;;;;;9.38;6.47;;;;;;;;;;4927478;28;20027;-59
2021/10/02 12:05:54;;;;;;;6.82;4.70;;;;;;;;;;4926872;28;20462;-59
2021/10/02 12:08:22;;;;;;;8.13;5.10;;;;;;;;;;4935499;28;20054;-59
2021/10/02 12:11:07;;;;;;;11.45;5.25;;;;;;;;;;4923276;28;20066;-59
2021/10/02 12:13:38;;;;;;;9.63;5.68;;;;;;;;;;4927605;28;20110;-58
2021/10/02 12:16:33;;;;;;;8.48;5.22;;;;;;;;;;4927648;28;20024;-59
2021/10/02 12:19:08;;;;;;;7.82;4.47;;;;;;;;;;4929621;28;20035;-59
2021/10/02 12:21:40;;;;;;;7.07;4.78;;;;;;;;;;4927910;28;20504;-60
2021/10/02 12:24:07;;;;;;;8.32;5.53;;;;;;;;;;4923943;28;20024;-57
2021/10/02 12:26:56;;;;;;;9.90;6.82;;;;;;;;;;4924287;28;20418;-58
2021/10/02 12:29:28;;;;;;;8.68;5.57;;;;;;;;;;4935347;28;20043;-59
2021/10/02 12:32:00;;;;;;;7.20;4.85;;;;;;;;;;4930512;28;20057;-59
2021/10/02 12:34:27;;;;;;;6.10;4.90;;;;;;;;;;4925637;28;20074;-60
2021/10/02 12:37:00;;;;;;;7.35;4.55;;;;;;;;;;4931379;28;20025;-58
2021/10/02 12:39:29;;;;;;;6.95;4.63;;;;;;;;;;4928154;28;20515;-58
2021/10/02 12:41:55;;;;;;;11.13;6.22;;;;;;;;;;4928514;28;20085;-59
2021/10/02 12:44:28;;;;;;;6.70;4.55;;;;;;;;;;4928567;28;20414;-59
2021/10/02 12:46:55;;;;;;;5.93;4.53;;;;;;;;;;4924671;28;20036;-59
2021/10/02 12:49:21;;;;;;;6.65;4.40;;;;;;;;;;4928032;28;20620;-60
2021/10/02 12:51:48;;;;;;;8.23;4.20;;;;;;;;;;4925153;28;20023;-59
2021/10/02 12:54:15;;;;;;;8.20;5.10;;;;;;;;;;4934118;28;20062;-59
2021/10/02 12:57:24;;;;;;;7.43;4.40;;;;;;;;;;4929558;28;20054;-59
2021/10/02 13:00:00;;;;;;;7.20;4.45;;;;;;;;;;4984445;28;20033;-61
2021/10/02 13:02:27;;;;;;;6.43;5.05;;;;;;;;;;4998766;28;20030;-58
2021/10/02 13:04:54;;;;;;;7.38;4.80;;;;;;;;;;4962008;28;20230;-59
2021/10/02 13:07:34;;;;;;;5.93;4.78;;;;;;;;;;4933873;28;20037;-59
2021/10/02 13:10:07;;;;;;;9.05;4.93;;;;;;;;;;4937098;28;20431;-59
2021/10/02 13:12:40;;;;;;;7.10;5.20;;;;;;;;;;4924310;28;20418;-61
2021/10/02 13:15:08;;;;;;;8.50;5.20;;;;;;;;;;4931366;28;20749;-60
2021/10/02 13:17:34;;;;;;;8.57;5.55;;;;;;;;;;4931360;28;20040;-57
2021/10/02 13:20:12;;;;;;;8.18;5.60;;;;;;;;;;4932282;28;20042;-58
2021/10/02 13:22:43;;;;;;;8.37;5.07;;;;;;;;;;4932551;28;20097;-60
2021/10/02 13:25:20;;;;;;;9.00;5.38;;;;;;;;;;4924580;28;20612;-59
2021/10/02 13:27:47;;;;;;;9.10;5.38;;;;;;;;;;4954306;28;20051;-60
2021/10/02 13:30:16;;;;;;;9.00;4.72;;;;;;;;;;4922703;28;20032;-58
2021/10/02 13:32:52;;;;;;;;;;;;;;;;;;4931924;28;20372;-59
2021/10/02 13:35:21;;;;;;;6.93;5.30;;;;;;;;;;4924476;28;19915;-59
2021/10/02 13:37:47;;;;;;;8.07;5.20;;;;;;;;;;4954654;28;20031;-59
2021/10/02 13:40:24;;;;;;;7.65;4.93;;;;;;;;;;4934582;28;20079;-59
2021/10/02 13:42:50;;;;;;;8.02;5.03;;;;;;;;;;4926400;28;20046;-59
2021/10/02 13:45:15;;;;;;;8.60;5.25;;;;;;;;;;4930391;28;20036;-59
2021/10/02 13:47:53;;;;;;;7.10;5.07;;;;;;;;;;4948236;28;20075;-59
2021/10/02 13:50:18;;;;;;;8.90;5.10;;;;;;;;;;4954406;28;20209;-59
2021/10/02 13:52:45;;;;;;;8.23;4.88;;;;;;;;;;4926161;28;20529;-59
2021/10/02 13:55:11;;;;;;;7.00;5.15;;;;;;;;;;4935190;28;20424;-59
2021/10/02 13:57:36;;;;;;;16.88;5.20;;;;;;;;;;4918675;28;20508;-59
2021/10/02 14:00:02;;;;;;;7.72;4.88;;;;;;;;;;4934240;28;20035;-59
2021/10/02 14:02:28;;;;;;;8.75;5.22;;;;;;;;;;4931000;28;20032;-59
2021/10/02 14:04:53;;;;;;;7.05;4.90;;;;;;;;;;4933514;28;20118;-59
2021/10/02 14:07:19;;;;;;;6.20;4.38;;;;;;;;;;4924493;28;20095;-59
2021/10/02 14:09:44;;;;;;;7.63;5.10;;;;;;;;;;4931467;28;20035;-58
2021/10/02 14:12:13;;;;;;;8.93;4.65;;;;;;;;;;4927829;28;20086;-58
2021/10/02 14:14:41;;;;;;;10.40;5.68;;;;;;;;;;4939211;28;20085;-59
2021/10/02 14:17:07;;;;;;;6.05;4.63;;;;;;;;;;4945113;28;20025;-59
2021/10/02 14:19:32;;;;;;;6.35;4.75;;;;;;;;;;4935033;28;20035;-59
2021/10/02 14:21:58;;;;;;;8.68;4.65;;;;;;;;;;4927567;28;20048;-58
2021/10/02 14:24:23;;;;;;;6.68;4.72;;;;;;;;;;4949172;28;20050;-58
2021/10/02 14:26:49;;;;;;;7.60;5.43;;;;;;;;;;4933825;28;20071;-59
2021/10/02 14:29:14;;;;;;;7.88;5.50;;;;;;;;;;4942393;28;20024;-59
2021/10/02 14:31:40;;;;;;;7.82;5.10;;;;;;;;;;4924370;28;20031;-58
2021/10/02 14:34:07;;;;;;;7.60;5.22;;;;;;;;;;4943908;28;20494;-59
2021/10/02 14:36:35;;;;;;;8.32;5.03;;;;;;;;;;4925363;28;20024;-58
2021/10/02 14:39:00;;;;;;;7.25;5.30;;;;;;;;;;4929694;28;20042;-58
2021/10/02 14:41:26;;;;;;;8.23;4.38;;;;;;;;;;4932261;28;20028;-58
2021/10/02 14:43:52;;;;;;;7.80;5.18;;;;;;;;;;4950943;28;20043;-58
2021/10/02 14:46:18;;;;;;;9.63;5.55;;;;;;;;;;4922624;28;20036;-58
2021/10/02 14:48:44;;;;;;;7.28;5.28;;;;;;;;;;4930965;28;20036;-58
2021/10/02 14:51:10;;;;;;;6.70;4.82;;;;;;;;;;4947715;28;20075;-58
2021/10/02 14:53:37;;;;;;;7.28;5.25;;;;;;;;;;4921506;28;20031;-60
2021/10/02 14:56:02;;;;;;;7.47;4.95;;;;;;;;;;4940024;28;20102;-58
2021/10/02 14:58:28;;;;;;;6.78;4.65;;;;;;;;;;4933602;28;20451;-58
2021/10/02 15:00:54;;;;;;;8.93;5.35;;;;;;;;;;4932735;28;20032;-58
2021/10/02 15:03:21;;;;;;;7.28;5.15;;;;;;;;;;4926323;28;20028;-58
2021/10/02 15:05:50;;;;;;;6.70;5.45;;;;;;;;;;4927964;28;20058;-58
2021/10/02 15:08:16;;;;;;;8.10;6.32;;;;;;;;;;4928849;28;20051;-58
2021/10/02 15:10:43;;;;;;;11.43;5.90;;;;;;;;;;4948162;28;20052;-57
2021/10/02 15:13:08;;;;;;;10.93;5.80;;;;;;;;;;4946571;28;20503;-58
2021/10/02 15:15:34;;;;;;;10.45;6.43;;;;;;;;;;4920983;28;20064;-58
2021/10/02 15:17:59;;;;;;;8.48;5.60;;;;;;;;;;4950369;28;20038;-58
2021/10/02 15:20:25;;;;;;;8.95;5.60;;;;;;;;;;4936402;28;20059;-59
2021/10/02 15:22:55;;;;;;;9.55;6.65;;;;;;;;;;4927641;28;20038;-59
2021/10/02 15:25:21;;;;;;;9.43;6.75;;;;;;;;;;4934681;28;20044;-59
2021/10/02 15:28:10;;;;;;;8.32;5.70;;;;;;;;;;4923338;28;20135;-59
2021/10/02 15:30:36;;;;;;;8.50;6.07;;;;;;;;;;4935654;28;20027;-60
2021/10/02 15:33:01;;;;;;;7.68;5.53;;;;;;;;;;4930061;28;20514;-58
2021/10/02 15:35:30;;;;;;;8.82;5.45;;;;;;;;;;4940430;28;20021;-59
2021/10/02 15:37:57;;;;;;;8.52;5.78;;;;;;;;;;4923604;28;20034;-63
2021/10/02 15:40:22;;;;;;;9.15;5.93;;;;;;;;;;4926969;28;20458;-60